Time;durP1;ratioP1;P1;durP2;ratioP2;P2;SDS_P1;SDS_P2;PMS_P1;PMS_P2;Temp;Humidity;BMP_temperature;BMP_pressure;BME280_temperature;BME280_humidity;BME280_pressure;Samples;Min_cycle;Max_cycle;Signal;HPM_P1;HPM_P2
2022/03/10 00:01:51;;;;;;;11.52;7.53;;;3.00;58.50;;;1.78;42.09;95699.25;5044408;28;20276;-83
2022/03/10 00:04:18;;;;;;;9.65;6.65;;;3.00;57.90;;;1.76;41.82;95706.31;5001646;28;20224;-83
2022/03/10 00:06:45;;;;;;;11.75;6.82;;;3.00;57.80;;;1.70;41.86;95707.59;5017944;28;20199;-83
2022/03/10 00:09:12;;;;;;;12.52;7.43;;;3.00;57.80;;;1.66;42.18;95702.78;5037472;28;20232;-83
2022/03/10 00:11:40;;;;;;;10.15;6.55;;;2.90;57.80;;;1.64;42.01;95712.44;5037679;28;20289;-83
2022/03/10 00:14:10;;;;;;;14.93;7.25;;;2.90;57.80;;;1.58;42.34;95716.28;5037458;28;20307;-83
2022/03/10 00:16:38;;;;;;;13.98;7.25;;;2.90;57.80;;;1.57;42.33;95712.06;5036221;28;20404;-83
2022/03/10 00:19:07;;;;;;;13.85;7.63;;;2.90;57.90;;;1.52;42.16;95720.16;5017434;28;20279;-83
2022/03/10 00:21:34;;;;;;;13.60;7.60;;;2.80;57.90;;;1.47;42.93;95726.63;5001221;28;20215;-84
2022/03/10 00:24:01;;;;;;;14.38;8.10;;;2.80;58.10;;;1.37;42.94;95722.13;5017625;28;20224;-83
2022/03/10 00:26:28;;;;;;;14.13;8.52;;;2.70;58.40;;;1.30;42.80;95713.19;5049737;28;20232;-83
2022/03/10 00:28:55;;;;;;;14.23;8.05;;;2.70;58.40;;;1.33;43.82;95731.06;5023149;28;20218;-83
2022/03/10 00:31:22;;;;;;;17.75;8.73;;;2.60;58.80;;;1.31;43.81;95730.34;5037186;28;20219;-84
2022/03/10 00:33:50;;;;;;;14.20;8.73;;;2.60;59.00;;;1.28;44.54;95734.00;5037413;28;20728;-83
2022/03/10 00:36:17;;;;;;;16.35;9.05;;;2.60;59.50;;;1.27;44.24;95731.53;5049513;28;20254;-84
2022/03/10 00:38:44;;;;;;;15.70;9.07;;;2.50;59.40;;;1.24;44.09;95734.31;5020675;28;20243;-84
2022/03/10 00:41:11;;;;;;;13.52;8.88;;;2.50;59.40;;;1.19;44.09;95721.75;5020815;28;20291;-83
2022/03/10 00:43:41;;;;;;;16.20;8.55;;;2.50;59.50;;;1.12;44.03;95720.53;5037549;28;20307;-83
2022/03/10 00:46:08;;;;;;;15.93;8.85;;;2.40;59.50;;;1.18;44.84;95733.00;5004090;28;20299;-83
2022/03/10 00:48:37;;;;;;;16.35;9.48;;;2.40;59.90;;;1.17;45.31;95727.97;5017259;28;20262;-84
2022/03/10 00:51:05;;;;;;;18.58;10.02;;;2.40;60.40;;;1.13;45.48;95727.38;5017503;28;20292;-83
2022/03/10 00:53:33;;;;;;;15.23;9.48;;;2.40;60.30;;;1.17;45.64;95721.03;5016777;28;20220;-83
2022/03/10 00:56:00;;;;;;;16.83;10.05;;;2.40;60.60;;;1.26;46.05;95732.47;5018086;28;20675;-84
2022/03/10 00:58:27;;;;;;;17.45;9.73;;;2.40;60.70;;;1.30;45.38;95736.44;5033681;28;20213;-83
2022/03/10 01:00:55;;;;;;;19.15;9.60;;;2.40;60.60;;;1.26;45.01;95728.09;5034420;28;20275;-84
2022/03/10 01:03:23;;;;;;;16.20;9.10;;;2.40;60.40;;;1.27;44.29;95736.69;5026922;28;20307;-84
2022/03/10 01:05:51;;;;;;;15.05;9.10;;;2.40;60.20;;;1.23;44.33;95730.94;5031314;28;20207;-84
2022/03/10 01:08:18;;;;;;;14.05;8.32;;;2.40;60.10;;;1.21;44.27;95734.53;5010056;28;20235;-84
2022/03/10 01:10:45;;;;;;;18.67;9.18;;;2.40;60.10;;;1.17;43.92;95738.28;5024887;28;20212;-83
2022/03/10 01:13:16;;;;;;;18.10;10.02;;;2.40;59.90;;;1.09;44.81;95736.28;5028811;28;20221;-83
2022/03/10 01:15:46;;;;;;;16.80;10.40;;;2.40;60.20;;;1.10;45.98;95737.94;5035742;28;20200;-84
2022/03/10 01:18:17;;;;;;;19.95;10.70;;;2.30;60.60;;;1.15;46.53;95735.00;4998807;28;20307;-83
2022/03/10 01:20:44;;;;;;;18.55;10.85;;;2.30;61.10;;;1.16;47.70;95737.50;5024298;28;20570;-83
2022/03/10 01:23:11;;;;;;;20.15;11.55;;;2.30;61.50;;;1.26;48.09;95745.38;5048929;28;20228;-83
2022/03/10 01:25:39;;;;;;;23.85;12.68;;;2.30;61.90;;;1.30;48.59;95746.78;5022582;28;20716;-83
2022/03/10 01:28:06;;;;;;;21.65;12.32;;;2.40;62.30;;;1.37;48.70;95739.41;5019824;28;20208;-84
2022/03/10 01:30:33;;;;;;;22.38;12.73;;;2.40;62.50;;;1.46;48.48;95735.31;4996846;28;20232;-84
2022/03/10 01:33:01;;;;;;;22.83;12.13;;;2.40;62.50;;;1.51;48.08;95743.53;5017856;28;20284;-84
2022/03/10 01:35:32;;;;;;;23.13;13.05;;;2.50;62.50;;;1.56;48.52;95742.28;5020070;28;20187;-83
2022/03/10 01:37:58;;;;;;;24.80;12.68;;;2.50;62.50;;;1.61;48.30;95734.16;5027444;28;20228;-83
2022/03/10 01:40:26;;;;;;;22.63;13.05;;;2.60;62.60;;;1.52;48.68;95717.56;5013001;28;20201;-84
2022/03/10 01:42:53;;;;;;;22.98;13.25;;;2.60;62.50;;;1.68;48.55;95743.09;5013160;28;20675;-84
2022/03/10 01:45:20;;;;;;;21.77;13.43;;;2.70;62.60;;;1.69;48.65;95736.16;5043936;28;20205;-84
2022/03/10 01:47:48;;;;;;;19.80;12.52;;;2.70;62.50;;;1.75;48.19;95738.28;5017076;28;20192;-84
2022/03/10 01:50:16;;;;;;;24.33;13.50;;;2.70;62.30;;;1.76;48.01;95743.34;5049035;28;20208;-84
2022/03/10 01:52:45;;;;;;;20.13;12.05;;;2.80;62.40;;;1.82;47.83;95746.38;5002515;28;20308;-83
2022/03/10 01:55:12;;;;;;;32.55;13.45;;;2.80;62.30;;;1.84;47.77;95741.94;5030246;28;20240;-83
2022/03/10 01:57:43;;;;;;;23.70;13.23;;;2.80;62.20;;;1.78;47.83;95730.28;5015839;28;20193;-83
2022/03/10 02:00:10;;;;;;;21.63;12.45;;;2.80;62.30;;;1.87;47.90;95744.28;5032577;28;20220;-82
2022/03/10 02:02:38;;;;;;;22.70;12.70;;;2.90;62.20;;;1.86;48.33;95727.94;5015182;28;20203;-83
2022/03/10 02:05:06;;;;;;;21.92;12.52;;;2.90;62.30;;;1.90;48.23;95738.88;5026919;28;20229;-84
2022/03/10 02:10:20;;;;;;;23.02;12.32;;;3.00;62.30;;;1.95;47.25;95743.69;5028066;28;20294;-83
2022/03/10 02:12:52;;;;;;;19.20;12.40;;;3.00;62.10;;;1.92;47.47;95740.41;5003962;28;20274;-84
2022/03/10 02:18:17;;;;;;;16.98;10.68;;;3.00;62.10;;;1.86;46.44;95751.22;5052232;28;20212;-84
2022/03/10 02:20:45;;;;;;;15.60;9.63;;;3.00;61.60;;;1.73;46.00;95748.75;5035546;28;20220;-84
2022/03/10 02:23:14;;;;;;;19.25;9.75;;;2.90;61.30;;;1.62;45.86;95747.91;5031669;28;20220;-84
2022/03/10 02:25:42;;;;;;;15.50;9.55;;;2.90;61.10;;;1.49;45.62;95759.19;5049797;28;20199;-83
2022/03/10 02:28:09;;;;;;;16.55;9.93;;;2.80;60.90;;;1.35;45.67;95754.22;5017453;28;20589;-84
2022/03/10 02:30:36;;;;;;;17.88;10.80;;;2.80;60.80;;;1.15;45.90;95751.34;5032190;28;20228;-84
2022/03/10 02:33:04;;;;;;;19.08;10.45;;;2.70;60.90;;;1.14;46.42;95748.88;5032352;28;20259;-84
2022/03/10 02:35:32;;;;;;;21.48;11.10;;;2.60;61.10;;;1.12;46.40;95761.88;5042103;28;20283;-83
2022/03/10 02:37:59;;;;;;;19.10;11.18;;;2.60;61.10;;;1.10;46.65;95758.59;5017580;28;20255;-84
2022/03/10 02:40:27;;;;;;;16.65;10.23;;;2.50;61.20;;;1.12;46.55;95761.88;5025171;28;20239;-84
2022/03/10 02:42:54;;;;;;;19.13;10.38;;;2.40;61.20;;;1.11;46.56;95771.41;5012291;28;20722;-84
2022/03/10 02:45:22;;;;;;;17.25;10.10;;;2.40;61.30;;;1.11;46.25;95767.97;5032271;28;20215;-83
2022/03/10 02:47:50;;;;;;;16.52;9.93;;;2.40;61.30;;;1.08;46.50;95776.78;5035251;28;20191;-84
2022/03/10 02:50:18;;;;;;;15.68;9.65;;;2.30;61.20;;;1.06;45.99;95773.50;5032779;28;20275;-84
2022/03/10 02:52:45;;;;;;;16.67;9.82;;;2.30;61.10;;;1.04;46.51;95775.38;5049679;28;20282;-84
2022/03/10 02:55:13;;;;;;;13.48;9.45;;;2.30;61.30;;;1.00;46.10;95775.69;5019192;28;20213;-83
2022/03/10 02:57:40;;;;;;;17.17;9.32;;;2.20;61.30;;;0.98;46.07;95774.97;5018601;28;20220;-84
2022/03/10 03:00:09;;;;;;;17.77;9.27;;;2.30;61.30;;;0.94;46.08;95782.97;5035279;28;20224;-84
2022/03/10 03:02:38;;;;;;;14.93;9.15;;;2.20;61.30;;;0.84;46.01;95781.16;5003050;28;20204;-84
2022/03/10 03:05:06;;;;;;;18.00;9.93;;;2.20;61.10;;;0.78;45.73;95788.41;5041280;28;20219;-84
2022/03/10 03:07:34;;;;;;;13.15;8.30;;;2.20;61.10;;;0.76;45.73;95795.44;5026297;28;20219;-84
2022/03/10 03:10:03;;;;;;;15.02;9.55;;;2.10;61.00;;;0.70;45.68;95795.06;5018418;28;20228;-83
2022/03/10 03:12:31;;;;;;;14.80;8.73;;;2.10;61.20;;;0.68;46.01;95796.91;5020182;28;20243;-84
2022/03/10 03:15:00;;;;;;;14.57;8.27;;;2.00;61.10;;;0.67;46.43;95795.25;5018780;28;20212;-83
2022/03/10 03:17:27;;;;;;;15.50;8.65;;;1.90;61.20;;;0.68;46.02;95802.06;5037651;28;20671;-84
2022/03/10 03:19:55;;;;;;;12.93;8.05;;;1.90;61.30;;;0.68;45.95;95799.50;5032947;28;20243;-83
2022/03/10 03:22:22;;;;;;;15.40;8.55;;;1.90;61.30;;;0.66;45.61;95799.63;5041967;28;20223;-84
2022/03/10 03:24:49;;;;;;;17.88;8.55;;;1.90;61.20;;;0.52;45.61;95787.66;5032981;28;20266;-84
2022/03/10 03:27:16;;;;;;;14.43;8.73;;;1.90;61.20;;;0.46;45.55;95785.50;5021206;28;20196;-84
2022/03/10 03:29:43;;;;;;;14.80;8.80;;;1.80;61.00;;;0.53;45.58;95801.41;5036090;28;20720;-83
2022/03/10 03:32:10;;;;;;;15.13;8.07;;;1.90;61.10;;;0.44;45.52;95803.69;5019564;28;20220;-84
2022/03/10 03:34:37;;;;;;;14.23;8.13;;;1.80;61.00;;;0.42;45.25;95813.28;5018355;28;20777;-84
2022/03/10 03:37:05;;;;;;;14.07;8.52;;;1.80;61.00;;;0.31;45.45;95811.44;5017910;28;20308;-84
2022/03/10 03:39:32;;;;;;;15.65;8.38;;;1.70;60.90;;;0.30;45.43;95824.47;5018570;28;20223;-84
2022/03/10 03:41:59;;;;;;;18.48;9.95;;;1.70;61.00;;;0.27;45.65;95827.25;5051207;28;20210;-83
2022/03/10 03:44:26;;;;;;;14.80;8.20;;;1.60;61.10;;;0.27;45.84;95827.25;5050862;28;20204;-83
2022/03/10 03:46:54;;;;;;;15.45;8.73;;;1.60;61.30;;;0.26;46.17;95823.03;5034272;28;20643;-83
2022/03/10 03:49:21;;;;;;;17.90;9.20;;;1.60;61.40;;;0.15;46.26;95810.88;5019539;28;20251;-83
2022/03/10 03:51:48;;;;;;;16.00;9.07;;;1.60;61.40;;;0.26;46.24;95818.69;5018279;28;20233;-83
2022/03/10 03:54:15;;;;;;;16.40;9.05;;;1.60;61.60;;;0.29;46.17;95822.81;5034767;28;20296;-83
2022/03/10 03:56:42;;;;;;;16.85;9.20;;;1.60;61.70;;;0.34;46.12;95838.78;5018246;28;20200;-83
2022/03/10 03:59:11;;;;;;;16.52;8.70;;;1.60;61.70;;;0.33;46.33;95821.69;5018319;28;20216;-83
2022/03/10 04:01:38;;;;;;;13.88;8.38;;;1.50;62.50;;;0.29;46.16;95822.81;5018311;28;20713;-83
2022/03/10 04:04:05;;;;;;;14.65;8.55;;;1.50;61.60;;;0.31;46.08;95819.19;5018247;28;20240;-83
2022/03/10 04:06:32;;;;;;;12.75;8.45;;;1.60;61.60;;;0.31;46.00;95821.78;5067042;28;20247;-83
2022/03/10 04:08:59;;;;;;;15.90;8.30;;;1.50;61.60;;;0.30;45.95;95829.63;5026396;28;20223;-83
2022/03/10 04:11:26;;;;;;;13.82;8.15;;;1.50;61.50;;;0.28;45.78;95828.91;5054287;28;20193;-83
2022/03/10 04:13:53;;;;;;;11.52;8.13;;;1.50;61.50;;;0.27;45.71;95832.41;5050277;28;20718;-82
2022/03/10 04:16:21;;;;;;;13.38;8.13;;;1.50;61.40;;;0.20;45.80;95832.03;5067135;28;20193;-83
2022/03/10 04:18:48;;;;;;;13.48;7.90;;;1.50;61.50;;;0.15;45.90;95831.50;5017292;28;20213;-83
2022/03/10 04:21:17;;;;;;;13.15;7.55;;;1.50;61.50;;;0.17;45.69;95832.22;5018042;28;20270;-83
2022/03/10 04:23:44;;;;;;;14.80;8.38;;;1.40;61.40;;;0.10;45.79;95831.81;5017997;28;20227;-84
2022/03/10 04:26:11;;;;;;;13.20;7.75;;;1.40;61.40;;;-0.01;45.82;95824.00;5022487;28;20658;-83
2022/03/10 04:28:38;;;;;;;15.75;8.00;;;1.40;61.40;;;0.03;45.81;95840.91;5022324;28;20311;-83
2022/03/10 04:31:06;;;;;;;13.65;7.53;;;1.40;61.50;;;-0.03;45.87;95836.16;5033423;28;20251;-82
2022/03/10 04:33:33;;;;;;;17.48;8.65;;;1.30;61.40;;;-0.05;46.15;95838.84;5001557;28;20311;-83
2022/03/10 04:36:01;;;;;;;14.73;8.25;;;1.30;61.50;;;-0.05;45.96;95843.16;5052541;28;20189;-83
2022/03/10 04:38:28;;;;;;;13.75;7.93;;;1.20;61.50;;;-0.13;46.06;95833.38;5037537;28;20215;-83
2022/03/10 04:40:55;;;;;;;16.30;8.65;;;1.20;61.40;;;-0.19;45.74;95838.94;5020084;28;20208;-82
2022/03/10 04:43:23;;;;;;;13.52;8.43;;;1.20;61.40;;;-0.23;46.01;95847.78;5001520;28;20224;-83
2022/03/10 04:45:51;;;;;;;13.10;7.63;;;1.20;61.40;;;-0.31;45.72;95848.31;5016944;28;20681;-82
2022/03/10 04:48:18;;;;;;;13.45;7.93;;;1.10;61.30;;;-0.39;45.69;95848.81;5017506;28;20217;-83
2022/03/10 04:50:45;;;;;;;14.77;8.20;;;1.10;61.30;;;-0.47;45.64;95850.25;5012299;28;20293;-83
2022/03/10 04:53:12;;;;;;;13.80;7.93;;;1.00;61.20;;;-0.53;45.81;95844.56;5053112;28;20311;-83
2022/03/10 04:55:39;;;;;;;13.45;7.80;;;1.00;61.20;;;-0.57;45.82;95844.88;5035173;28;20277;-83
2022/03/10 04:58:08;;;;;;;14.48;8.18;;;0.90;61.30;;;-0.62;46.07;95844.34;5035235;28;20235;-83
2022/03/10 05:00:35;;;;;;;15.38;8.90;;;0.90;61.40;;;-0.63;46.37;95840.94;5018399;28;20762;-82
2022/03/10 05:03:03;;;;;;;14.35;8.95;;;0.80;61.60;;;-0.58;46.38;95843.22;5017205;28;20197;-83
2022/03/10 05:05:32;;;;;;;16.48;9.15;;;0.80;61.70;;;-0.56;46.48;95843.94;5025743;28;20236;-84
2022/03/10 05:07:59;;;;;;;16.80;8.80;;;0.80;61.80;;;-0.61;46.48;95836.53;5024431;28;20201;-83
2022/03/10 05:10:27;;;;;;;13.98;9.18;;;0.80;61.90;;;-0.53;46.61;95847.13;5031959;28;20208;-83
2022/03/10 05:12:57;;;;;;;14.82;8.68;;;0.70;61.80;;;-0.56;46.45;95843.94;5036889;28;20216;-83
2022/03/10 05:15:32;;;;;;;16.63;8.85;;;0.80;62.00;;;-0.60;46.31;95845.06;5033263;28;20226;-83
2022/03/10 05:18:02;;;;;;;16.35;9.18;;;0.70;61.80;;;-0.60;46.65;95850.22;5017413;28;20251;-82
2022/03/10 05:20:31;;;;;;;15.65;9.70;;;0.70;61.90;;;-0.59;47.31;95852.69;5016866;28;20214;-83
2022/03/10 05:23:02;;;;;;;17.48;9.73;;;0.70;62.10;;;-0.56;46.98;95851.66;5049959;28;20232;-82
2022/03/10 05:25:36;;;;;;;18.73;9.85;;;0.70;62.20;;;-0.61;46.61;95846.84;5016708;28;20616;-82
2022/03/10 05:28:14;;;;;;;15.43;8.82;;;0.70;62.30;;;-0.59;46.39;95855.28;5049480;28;20221;-82
2022/03/10 05:30:42;;;;;;;16.63;8.30;;;0.70;62.10;;;-0.65;46.46;95869.41;5017663;28;20204;-82
2022/03/10 05:33:11;;;;;;;15.15;8.63;;;0.70;61.90;;;-0.69;46.24;95869.69;5016667;28;20232;-84
2022/03/10 05:35:39;;;;;;;14.90;9.80;;;0.60;61.80;;;-0.74;46.45;95867.41;5002427;28;20231;-83
2022/03/10 05:38:06;;;;;;;14.80;8.95;;;0.60;61.80;;;-0.82;46.41;95854.19;5016449;28;20213;-83
2022/03/10 05:40:33;;;;;;;15.43;8.77;;;0.60;61.90;;;-0.78;46.42;95867.69;5016776;28;20205;-82
2022/03/10 05:43:00;;;;;;;13.65;8.38;;;0.60;61.90;;;-0.81;46.42;95868.72;5016519;28;20647;-83
2022/03/10 05:45:27;;;;;;;14.73;8.10;;;0.60;62.00;;;-0.83;46.27;95871.38;5024664;28;20245;-83
2022/03/10 05:47:57;;;;;;;15.95;8.75;;;0.50;61.90;;;-0.85;46.31;95872.41;5036270;28;20191;-84
2022/03/10 05:50:25;;;;;;;17.52;9.75;;;0.50;61.90;;;-0.97;46.37;95859.38;5035978;28;20204;-83
2022/03/10 05:52:54;;;;;;;16.23;9.48;;;0.50;62.00;;;-1.05;46.30;95853.91;5035909;28;20238;-84
2022/03/10 05:55:23;;;;;;;22.38;8.88;;;0.40;61.90;;;-0.86;46.22;95878.50;5031447;28;20288;-83
2022/03/10 05:57:50;;;;;;;15.95;8.90;;;0.40;61.90;;;-0.91;46.28;95875.38;5035451;28;20199;-84
2022/03/10 06:00:18;;;;;;;16.23;9.70;;;0.50;62.10;;;-0.88;46.37;95873.44;5026175;28;20304;-82
2022/03/10 06:02:47;;;;;;;17.27;9.13;;;0.40;62.10;;;-0.80;46.31;95878.09;5032503;28;20197;-83
2022/03/10 06:05:15;;;;;;;16.60;9.10;;;0.40;62.10;;;-0.77;46.46;95880.47;5016231;28;20243;-84
2022/03/10 06:07:43;;;;;;;14.88;9.45;;;0.40;62.20;;;-0.72;46.38;95885.31;5000176;28;20266;-84
2022/03/10 06:10:10;;;;;;;15.60;9.07;;;0.40;62.30;;;-0.84;46.35;95868.94;5024787;28;20361;-84
2022/03/10 06:12:38;;;;;;;15.75;8.95;;;0.40;62.30;;;-0.70;46.36;95884.28;5019453;28;20224;-84
2022/03/10 06:15:08;;;;;;;17.05;9.68;;;0.50;62.50;;;-0.59;46.40;95895.69;5035005;28;20287;-84
2022/03/10 06:17:35;;;;;;;14.57;8.90;;;0.50;62.60;;;-0.61;46.34;95877.75;5035835;28;20246;-84
2022/03/10 06:20:05;;;;;;;16.13;9.18;;;0.50;62.40;;;-0.50;46.63;95884.75;5024196;28;20262;-83
2022/03/10 06:22:35;;;;;;;16.02;9.57;;;0.50;62.50;;;-0.42;46.19;95887.69;5036022;28;20255;-84
2022/03/10 06:25:05;;;;;;;17.50;9.57;;;0.60;62.60;;;-0.39;46.37;95882.34;5052231;28;20220;-83
2022/03/10 06:27:33;;;;;;;16.73;9.35;;;0.60;62.70;;;-0.29;46.47;95890.28;5034383;28;20207;-84
2022/03/10 06:30:00;;;;;;;17.77;9.27;;;0.70;62.80;;;-0.23;46.29;95879.56;5017396;28;20240;-84
2022/03/10 06:32:27;;;;;;;15.93;8.95;;;0.70;62.80;;;-0.18;46.46;95882.66;5045681;28;20316;-84
2022/03/10 06:34:57;;;;;;;17.83;9.80;;;0.70;62.80;;;-0.09;46.47;95891.53;5012273;28;20252;-84
2022/03/10 06:37:25;;;;;;;14.75;9.50;;;0.80;63.00;;;0.01;46.45;95888.34;5012512;28;20240;-84
2022/03/10 06:39:55;;;;;;;17.10;10.40;;;0.90;63.10;;;0.07;46.38;95891.34;5012959;28;20304;-84
2022/03/10 06:42:22;;;;;;;22.50;12.55;;;1.00;63.20;;;0.20;46.70;95906.03;5045233;28;20255;-84
2022/03/10 06:44:49;;;;;;;21.70;13.25;;;1.00;63.20;;;0.29;46.54;95911.38;5049289;28;20212;-84
2022/03/10 06:47:16;;;;;;;19.45;11.35;;;1.10;63.40;;;0.38;46.49;95904.78;5016106;28;20229;-84
2022/03/10 06:49:44;;;;;;;19.92;10.57;;;1.10;63.40;;;0.48;46.74;95916.09;5015936;28;20245;-84
2022/03/10 06:52:11;;;;;;;20.52;10.85;;;1.20;63.50;;;0.59;46.71;95906.81;5015369;28;20729;-84
2022/03/10 06:54:39;;;;;;;16.60;10.13;;;1.30;63.60;;;0.71;46.60;95910.28;5019317;28;20246;-84
2022/03/10 06:57:08;;;;;;;18.75;10.48;;;1.40;63.80;;;0.80;46.93;95918.22;5017227;28;20243;-82
2022/03/10 06:59:35;;;;;;;17.95;10.32;;;1.50;63.70;;;0.94;46.56;95919.03;5031697;28;20228;-84
2022/03/10 07:02:03;;;;;;;14.88;9.73;;;1.60;63.80;;;1.00;46.75;95910.88;5031408;28;20263;-84
2022/03/10 07:04:31;;;;;;;16.58;10.20;;;1.60;63.80;;;1.17;46.77;95926.94;5031685;28;20315;-84
2022/03/10 07:06:58;;;;;;;17.13;10.20;;;1.80;63.90;;;1.29;46.67;95928.63;5015614;28;20196;-85
2022/03/10 07:09:25;;;;;;;17.92;9.38;;;1.80;63.90;;;1.40;46.86;95925.28;5006786;28;20255;-84
2022/03/10 07:11:54;;;;;;;18.77;9.88;;;2.00;64.00;;;1.52;46.54;95928.75;5035095;28;20204;-84
2022/03/10 07:14:25;;;;;;;18.80;10.20;;;2.00;63.90;;;1.59;47.00;95917.03;5022587;28;20276;-84
2022/03/10 07:17:17;;;;;;;16.63;9.85;;;2.20;64.40;;;1.60;46.62;95896.22;5011858;28;20693;-84
2022/03/10 07:19:45;;;;;;;16.02;10.18;;;2.30;64.00;;;1.89;46.71;95928.66;5019734;28;20208;-84
2022/03/10 07:22:18;;;;;;;16.40;10.32;;;2.40;64.10;;;2.01;46.56;95929.53;5017022;28;20287;-84
2022/03/10 07:24:45;;;;;;;19.13;10.30;;;2.50;64.40;;;2.07;46.71;95911.75;5011318;28;20222;-84
2022/03/10 07:27:12;;;;;;;18.60;10.88;;;2.60;64.10;;;2.26;46.87;95935.44;5009140;28;20294;-84
2022/03/10 07:29:39;;;;;;;18.98;10.57;;;2.70;64.10;;;2.37;46.61;95930.31;5015262;28;20381;-84
2022/03/10 07:32:07;;;;;;;18.83;11.07;;;2.80;64.20;;;2.43;46.74;95926.41;5030813;28;20235;-85
2022/03/10 07:34:35;;;;;;;20.08;10.45;;;2.90;64.20;;;2.54;46.51;95929.03;5046522;28;20240;-84
2022/03/10 07:37:02;;;;;;;19.63;11.70;;;3.00;64.30;;;2.72;46.75;95939.72;5015305;28;20651;-85
2022/03/10 07:39:30;;;;;;;17.70;10.98;;;3.10;64.20;;;2.85;47.08;95942.22;5018153;28;20227;-85
2022/03/10 07:42:00;;;;;;;20.27;11.65;;;3.20;64.20;;;2.95;46.71;95944.91;5050445;28;20204;-85
2022/03/10 07:44:27;;;;;;;17.98;10.80;;;3.30;64.10;;;3.08;46.41;95939.63;5038940;28;20701;-85
2022/03/10 07:46:54;;;;;;;15.40;10.30;;;3.40;64.00;;;3.21;46.55;95948.09;5038986;28;20239;-85
2022/03/10 07:49:21;;;;;;;16.38;10.50;;;3.60;64.10;;;3.32;46.58;95942.03;5038180;28;20224;-84
2022/03/10 07:51:50;;;;;;;15.73;9.68;;;3.70;64.00;;;3.33;46.62;95928.97;5015211;28;20209;-85
2022/03/10 07:54:17;;;;;;;19.10;10.63;;;3.80;64.00;;;3.51;46.71;95934.44;4999301;28;20693;-85
2022/03/10 07:56:44;;;;;;;18.33;11.18;;;3.90;64.00;;;3.57;46.29;95927.13;5017360;28;20255;-85
2022/03/10 07:59:11;;;;;;;17.27;11.45;;;4.00;63.90;;;3.68;46.72;95929.69;5018704;28;20220;-85
2022/03/10 08:01:39;;;;;;;17.38;11.52;;;4.10;63.90;;;3.87;46.25;95946.34;5035017;28;20212;-85
2022/03/10 08:04:06;;;;;;;20.02;11.13;;;4.20;63.90;;;3.95;46.27;95936.97;5014201;28;20229;-85
2022/03/10 08:06:34;;;;;;;19.50;11.00;;;4.30;63.80;;;4.04;46.35;95929.41;5014923;28;20206;-85
2022/03/10 08:09:02;;;;;;;18.95;11.60;;;4.40;63.80;;;4.07;46.29;95921.38;5060926;28;20252;-85
2022/03/10 08:11:29;;;;;;;21.23;12.20;;;4.50;63.80;;;4.25;46.41;95930.22;5018478;28;20193;-85
2022/03/10 08:13:56;;;;;;;21.20;13.02;;;4.60;63.80;;;4.36;46.24;95929.34;5018505;28;20272;-85
2022/03/10 08:16:23;;;;;;;20.00;13.07;;;4.70;63.80;;;4.47;45.97;95928.44;5033535;28;20196;-85
2022/03/10 08:18:51;;;;;;;18.65;12.23;;;4.70;63.70;;;4.46;46.14;95916.41;5034391;28;20758;-85
2022/03/10 08:21:18;;;;;;;18.00;11.52;;;4.80;63.60;;;4.66;45.92;95930.28;5017969;28;20207;-85
2022/03/10 08:23:45;;;;;;;17.98;11.10;;;4.90;63.60;;;4.75;45.84;95928.72;5001663;28;20290;-84
2022/03/10 08:26:13;;;;;;;19.52;12.65;;;5.00;63.50;;;4.82;45.99;95922.03;5017689;28;20205;-84
2022/03/10 08:28:40;;;;;;;24.02;11.93;;;5.10;63.60;;;4.93;45.87;95923.69;5017854;28;20231;-84
2022/03/10 08:31:07;;;;;;;20.10;11.85;;;5.20;63.60;;;5.03;46.15;95914.19;5035452;28;20300;-86
2022/03/10 08:33:34;;;;;;;18.60;11.52;;;5.30;63.60;;;5.28;45.87;95927.63;5019793;28;20789;-86
2022/03/10 08:36:03;;;;;;;17.20;11.35;;;5.40;63.60;;;5.42;45.81;95932.47;5033922;28;20199;-86
2022/03/10 08:38:30;;;;;;;20.02;11.35;;;5.50;63.60;;;5.64;45.83;95941.00;5019559;28;20243;-85
2022/03/10 08:40:57;;;;;;;17.90;11.07;;;5.60;63.90;;;5.84;45.51;95934.00;5033710;28;20638;-86
2022/03/10 08:43:28;;;;;;;17.52;12.00;;;5.80;64.00;;;5.98;45.64;95919.78;5017631;28;20221;-86
2022/03/10 08:45:57;;;;;;;19.30;10.88;;;5.90;64.00;;;6.28;45.60;95933.59;5018334;28;20207;-86
2022/03/10 08:48:25;;;;;;;21.83;11.63;;;6.10;64.10;;;6.53;45.55;95934.78;5029328;28;20209;-85
2022/03/10 08:50:52;;;;;;;20.00;12.70;;;6.30;64.10;;;6.77;45.54;95937.88;5004549;28;20197;-85
2022/03/10 08:53:19;;;;;;;15.93;11.55;;;6.50;64.10;;;6.97;44.97;95936.84;5005692;28;20338;-85
2022/03/10 08:55:46;;;;;;;19.98;12.85;;;6.70;64.20;;;7.20;45.34;95932.06;5039891;28;20198;-85
2022/03/10 08:58:18;;;;;;;21.50;14.13;;;6.90;64.00;;;7.33;44.76;95915.22;4990998;28;20220;-85
2022/03/10 09:00:45;;;;;;;21.25;13.18;;;7.00;64.00;;;7.48;44.56;95908.56;5046865;28;20204;-84
2022/03/10 09:03:33;;;;;;;18.73;12.50;;;7.20;64.00;;;7.80;44.62;95924.66;5046589;28;20209;-84
2022/03/10 09:06:01;;;;;;;28.83;18.42;;;7.40;63.90;;;7.95;44.79;95914.53;5029687;28;20698;-84
2022/03/10 09:08:28;;;;;;;24.77;15.07;;;7.60;63.90;;;8.19;44.69;95921.75;5031307;28;20778;-85
2022/03/10 09:10:55;;;;;;;22.05;14.35;;;7.80;63.80;;;8.22;44.89;95899.72;5033620;28;20201;-84
2022/03/10 09:13:25;;;;;;;21.23;14.60;;;8.00;63.90;;;8.54;45.06;95935.72;5038602;28;20216;-84
2022/03/10 09:15:53;;;;;;;20.98;14.68;;;8.20;63.80;;;8.54;44.56;95898.31;5019533;28;20228;-85
2022/03/10 09:18:20;;;;;;;23.48;14.90;;;8.30;63.70;;;8.78;44.46;95924.59;5026900;28;20227;-85
2022/03/10 09:20:47;;;;;;;19.70;14.07;;;8.50;63.60;;;8.87;44.29;95922.84;5017342;28;20207;-84
2022/03/10 09:23:14;;;;;;;19.40;14.05;;;8.70;63.50;;;9.01;44.42;95925.84;5044655;28;20254;-84
2022/03/10 09:25:41;;;;;;;18.20;13.25;;;8.80;63.40;;;9.05;44.16;95909.66;5023852;28;20200;-84
2022/03/10 09:28:10;;;;;;;20.10;13.40;;;9.00;63.20;;;9.15;44.06;95916.59;5009334;28;20237;-85
2022/03/10 09:30:37;;;;;;;20.58;14.85;;;9.00;63.10;;;9.20;44.25;95917.72;5023645;28;20681;-85
2022/03/10 09:33:05;;;;;;;19.42;14.15;;;9.10;63.00;;;9.23;43.81;95927.91;5030984;28;20216;-85
2022/03/10 09:35:32;;;;;;;23.55;13.73;;;9.30;62.70;;;9.22;44.19;95914.97;5019041;28;20436;-84
2022/03/10 09:37:59;;;;;;;21.25;14.05;;;9.30;62.60;;;9.15;43.89;95911.34;5022851;28;20204;-85
2022/03/10 09:40:27;;;;;;;20.60;13.25;;;9.40;62.30;;;9.12;43.55;95921.16;5025941;28;20200;-84
2022/03/10 09:42:55;;;;;;;20.48;13.18;;;9.40;62.20;;;9.04;43.58;95928.97;5015481;28;20223;-83
2022/03/10 09:45:23;;;;;;;20.17;13.43;;;9.40;62.10;;;8.94;43.77;95921.22;5049243;28;20259;-85
2022/03/10 09:47:50;;;;;;;21.23;13.65;;;9.30;62.00;;;8.86;43.98;95916.00;5032464;28;20193;-84
2022/03/10 09:50:18;;;;;;;18.90;13.27;;;9.30;62.30;;;8.84;44.01;95919.72;5032502;28;20534;-85
2022/03/10 09:52:47;;;;;;;21.88;14.43;;;9.30;62.10;;;8.83;43.91;95915.47;5036069;28;20192;-85
2022/03/10 09:55:18;;;;;;;18.90;13.27;;;9.20;62.10;;;8.82;43.97;95919.88;5019517;28;20309;-85
2022/03/10 09:57:47;;;;;;;17.67;13.25;;;9.20;62.10;;;8.84;43.79;95924.94;5025005;28;20725;-84
2022/03/10 10:00:17;;;;;;;22.77;14.05;;;9.10;62.10;;;8.86;43.72;95930.84;5026695;28;20295;-84
2022/03/10 10:02:45;;;;;;;18.70;13.55;;;9.20;62.20;;;8.88;44.02;95929.72;5035637;28;20196;-84
2022/03/10 10:05:34;;;;;;;21.30;13.52;;;9.10;62.20;;;8.94;44.14;95928.28;5051941;28;20223;-84
2022/03/10 10:08:04;;;;;;;19.90;12.98;;;9.10;62.40;;;9.03;43.86;95929.13;5004559;28;20693;-84
2022/03/10 10:10:34;;;;;;;20.83;13.75;;;9.20;62.30;;;9.05;43.86;95924.56;5029921;28;20307;-84
2022/03/10 10:13:26;;;;;;;20.80;13.57;;;9.20;62.30;;;9.12;43.71;95931.63;5061696;28;20587;-84
2022/03/10 10:16:01;;;;;;;19.33;13.60;;;9.30;62.20;;;9.22;43.76;95928.06;5028699;28;20184;-84
2022/03/10 10:18:29;;;;;;;18.45;13.13;;;9.30;62.20;;;9.37;43.53;95939.56;5038026;28;20203;-84
2022/03/10 10:21:19;;;;;;;20.13;13.88;;;9.40;62.50;;;9.43;43.89;95917.97;5034352;28;20195;-84
2022/03/10 10:23:50;;;;;;;20.25;13.57;;;9.50;62.60;;;9.65;43.47;95936.69;5035099;28;20216;-84
2022/03/10 10:26:18;;;;;;;19.42;13.68;;;9.50;62.40;;;9.76;43.44;95933.78;5032578;28;20196;-84
2022/03/10 10:28:50;;;;;;;21.90;13.70;;;9.60;62.50;;;9.96;43.29;95933.47;5035475;28;20682;-84
2022/03/10 10:31:24;;;;;;;21.45;13.18;;;9.80;62.70;;;10.17;43.64;95926.94;5015268;28;20197;-84